Time;durP1;ratioP1;P1;durP2;ratioP2;P2;SDS_P1;SDS_P2;PMS_P1;PMS_P2;Temp;Humidity;BMP_temperature;BMP_pressure;BME280_temperature;BME280_humidity;BME280_pressure;Samples;Min_cycle;Max_cycle;Signal;HPM_P1;HPM_P2
2021/08/04 00:01:33;;;;;;;12.20;10.10;;;24.00;94.70;;;;;;5041515;28;20031;-85
2021/08/04 00:03:59;;;;;;;12.85;10.52;;;24.00;94.70;;;;;;5041447;28;20443;-85
2021/08/04 00:06:24;;;;;;;14.18;11.50;;;24.00;94.70;;;;;;5054441;28;20115;-85
2021/08/04 00:08:50;;;;;;;13.82;11.52;;;24.00;94.70;;;;;;5056943;28;20077;-84
2021/08/04 00:11:16;;;;;;;13.80;11.45;;;24.00;94.70;;;;;;5040407;28;20039;-85
2021/08/04 00:13:42;;;;;;;15.13;12.30;;;24.00;94.70;;;;;;5078511;28;20012;-85
2021/08/04 00:16:07;;;;;;;16.48;13.50;;;24.00;94.80;;;;;;5056699;28;20414;-85
2021/08/04 00:18:33;;;;;;;16.52;13.07;;;24.10;94.80;;;;;;5039431;28;20147;-85
2021/08/04 00:20:59;;;;;;;16.15;13.90;;;24.00;94.70;;;;;;5057117;28;20113;-85
2021/08/04 00:23:25;;;;;;;18.13;14.77;;;24.00;94.80;;;;;;5061227;28;20487;-86
2021/08/04 00:25:51;;;;;;;18.35;14.38;;;24.00;94.80;;;;;;5040078;28;20035;-85
2021/08/04 00:28:17;;;;;;;18.08;15.07;;;24.00;94.80;;;;;;5056552;28;20135;-85
2021/08/04 00:30:42;;;;;;;19.55;15.57;;;24.00;94.80;;;;;;5037375;28;20060;-85
2021/08/04 00:33:08;;;;;;;18.77;15.02;;;24.00;94.80;;;;;;5079651;28;20029;-85
2021/08/04 00:35:34;;;;;;;19.15;16.02;;;24.00;94.80;;;;;;5062116;28;20444;-85
2021/08/04 00:37:59;;;;;;;17.73;15.75;;;24.00;94.80;;;;;;5056502;28;20039;-85
2021/08/04 00:40:25;;;;;;;21.33;16.92;;;24.00;94.80;;;;;;5057844;28;20055;-85
2021/08/04 00:42:51;;;;;;;21.05;17.95;;;24.00;94.80;;;;;;5056138;28;20056;-85
2021/08/04 00:45:17;;;;;;;20.92;17.35;;;24.00;94.80;;;;;;5040715;28;20115;-85
2021/08/04 00:47:43;;;;;;;21.75;17.70;;;24.00;94.80;;;;;;5073346;28;20029;-85
2021/08/04 00:50:10;;;;;;;23.20;18.92;;;24.00;94.80;;;;;;5057174;28;20032;-85
2021/08/04 00:52:35;;;;;;;21.50;18.33;;;24.00;94.80;;;;;;5039056;28;20037;-84
2021/08/04 00:55:01;;;;;;;21.55;17.95;;;24.00;94.80;;;;;;5073104;28;20028;-82
2021/08/04 00:57:26;;;;;;;23.20;19.38;;;24.00;94.80;;;;;;5060601;28;20037;-83
2021/08/04 00:59:53;;;;;;;24.73;20.67;;;24.00;94.90;;;;;;5039080;28;20371;-82
2021/08/04 01:02:23;;;;;;;26.85;21.52;;;24.00;94.90;;;;;;5056125;28;20028;-83
2021/08/04 01:04:56;;;;;;;25.80;21.35;;;24.00;94.90;;;;;;5055627;28;20032;-82
2021/08/04 01:07:32;;;;;;;28.55;22.45;;;24.00;94.90;;;;;;5058755;28;20062;-83
2021/08/04 01:10:20;;;;;;;28.00;22.13;;;24.00;94.90;;;;;;5057912;28;20107;-83
2021/08/04 01:13:26;;;;;;;28.38;23.10;;;24.00;94.90;;;;;;5055381;28;20051;-83
2021/08/04 01:16:06;;;;;;;29.88;24.55;;;24.00;95.20;;;;;;4971769;28;20042;-82
2021/08/04 01:18:47;;;;;;;28.90;23.70;;;24.00;94.90;;;;;;5048750;28;20033;-85
2021/08/04 01:21:14;;;;;;;29.08;24.27;;;24.00;95.00;;;;;;5055456;28;20028;-82
2021/08/04 01:23:52;;;;;;;29.85;24.77;;;24.00;95.00;;;;;;5055053;28;20040;-82
2021/08/04 01:26:39;;;;;;;29.48;24.73;;;24.00;95.00;;;;;;5073104;28;20043;-82
2021/08/04 01:29:14;;;;;;;27.30;23.17;;;24.00;95.10;;;;;;5073793;28;20054;-82
2021/08/04 01:31:41;;;;;;;30.90;24.20;;;24.00;95.10;;;;;;5054500;28;20028;-82
2021/08/04 01:34:09;;;;;;;30.55;24.20;;;24.00;95.10;;;;;;5055071;28;20025;-83
2021/08/04 01:36:35;;;;;;;27.55;23.40;;;24.00;95.20;;;;;;5072756;28;20542;-84
2021/08/04 01:39:03;;;;;;;28.13;23.13;;;24.00;95.20;;;;;;5077416;28;20059;-82
2021/08/04 01:41:32;;;;;;;29.35;24.48;;;24.00;95.20;;;;;;5055030;28;20051;-83
2021/08/04 01:43:58;;;;;;;29.85;23.92;;;24.00;95.20;;;;;;5040121;28;20067;-83
2021/08/04 01:46:24;;;;;;;31.35;24.70;;;24.00;95.30;;;;;;5054967;28;20033;-83
2021/08/04 01:48:53;;;;;;;28.30;23.45;;;24.00;95.30;;;;;;5038134;28;20493;-84
2021/08/04 01:51:18;;;;;;;32.67;25.52;;;24.00;95.30;;;;;;5072974;28;20025;-83
2021/08/04 01:53:47;;;;;;;31.30;23.40;;;24.00;95.30;;;;;;5054724;28;20485;-81
2021/08/04 01:56:14;;;;;;;29.85;23.90;;;24.00;95.40;;;;;;5072874;28;20121;-82
2021/08/04 01:58:40;;;;;;;28.23;23.65;;;24.00;95.40;;;;;;5072859;28;20039;-83
2021/08/04 02:01:06;;;;;;;28.70;24.15;;;24.00;95.40;;;;;;5055002;28;20025;-82
2021/08/04 02:03:32;;;;;;;29.25;23.92;;;24.00;95.40;;;;;;5054963;28;20402;-82
2021/08/04 02:06:03;;;;;;;29.20;24.08;;;24.00;95.40;;;;;;5054449;28;20450;-82
2021/08/04 02:08:41;;;;;;;28.08;24.85;;;24.00;95.40;;;;;;5072381;28;20043;-82
2021/08/04 02:11:23;;;;;;;29.80;23.30;;;24.00;95.40;;;;;;5076766;28;20104;-82
2021/08/04 02:14:04;;;;;;;29.52;24.38;;;24.00;95.40;;;;;;5072390;28;20036;-83
2021/08/04 02:16:45;;;;;;;29.20;24.88;;;24.00;95.50;;;;;;5054258;28;20510;-82
2021/08/04 02:19:22;;;;;;;31.38;26.02;;;24.00;95.40;;;;;;5054767;28;20123;-83
2021/08/04 02:22:17;;;;;;;28.88;24.05;;;24.00;95.40;;;;;;5055554;28;20111;-83
2021/08/04 02:24:51;;;;;;;28.60;24.42;;;24.00;95.40;;;;;;5049941;28;20394;-83
2021/08/04 02:27:18;;;;;;;29.33;24.90;;;24.00;95.50;;;;;;5054593;28;20044;-83
2021/08/04 02:29:46;;;;;;;30.70;24.42;;;24.00;95.40;;;;;;5075648;28;20032;-83
2021/08/04 02:32:11;;;;;;;29.33;24.83;;;24.00;95.40;;;;;;5055041;28;20033;-83
2021/08/04 02:34:38;;;;;;;32.30;26.85;;;24.00;95.40;;;;;;5072543;28;20031;-82
2021/08/04 02:37:04;;;;;;;31.95;26.35;;;24.00;95.40;;;;;;5057984;28;20042;-82
2021/08/04 02:39:30;;;;;;;34.15;27.92;;;24.00;95.40;;;;;;5054357;28;20028;-82
2021/08/04 02:41:55;;;;;;;31.83;26.80;;;24.00;95.40;;;;;;5054309;28;20036;-82
2021/08/04 02:44:21;;;;;;;33.35;27.52;;;24.00;95.40;;;;;;5040927;28;20035;-82
2021/08/04 02:46:48;;;;;;;32.70;26.17;;;24.00;95.40;;;;;;5076504;28;20115;-82
2021/08/04 02:49:15;;;;;;;32.25;27.25;;;24.00;95.40;;;;;;5041944;28;20120;-82
2021/08/04 02:51:42;;;;;;;33.95;28.00;;;24.00;95.40;;;;;;5058844;28;20028;-82
2021/08/04 02:54:12;;;;;;;36.05;28.45;;;24.00;95.40;;;;;;5058212;28;20423;-82
2021/08/04 02:56:38;;;;;;;35.83;28.75;;;24.00;95.60;;;;;;5076227;28;20028;-82
2021/08/04 02:59:03;;;;;;;33.60;28.23;;;24.00;95.40;;;;;;5076669;28;20220;-82
2021/08/04 03:01:29;;;;;;;32.65;27.90;;;24.00;95.40;;;;;;5057917;28;20032;-82
2021/08/04 03:03:55;;;;;;;36.40;29.23;;;24.00;95.40;;;;;;5075468;28;20442;-82
2021/08/04 03:06:20;;;;;;;38.00;30.92;;;24.00;95.40;;;;;;5044709;28;20033;-83
2021/08/04 03:08:46;;;;;;;36.03;29.23;;;24.00;95.40;;;;;;5057684;28;20098;-83
2021/08/04 03:11:11;;;;;;;36.13;29.58;;;24.00;95.40;;;;;;5026413;28;20032;-82
2021/08/04 03:13:37;;;;;;;38.75;30.08;;;24.00;95.40;;;;;;5057840;28;20111;-82
2021/08/04 03:16:03;;;;;;;34.63;28.48;;;23.90;95.40;;;;;;5057836;28;20415;-82
2021/08/04 03:18:29;;;;;;;33.97;28.35;;;23.90;95.40;;;;;;5057504;28;20056;-82
2021/08/04 03:20:55;;;;;;;33.95;29.42;;;24.00;95.40;;;;;;5059890;28;20367;-82
2021/08/04 03:23:21;;;;;;;34.30;28.23;;;24.00;95.40;;;;;;5057466;28;20028;-82
2021/08/04 03:25:47;;;;;;;36.00;28.92;;;23.90;95.40;;;;;;5057324;28;20044;-85
2021/08/04 03:28:13;;;;;;;35.33;29.00;;;24.00;95.50;;;;;;5041224;28;20032;-83
2021/08/04 03:30:39;;;;;;;36.08;29.33;;;24.00;95.60;;;;;;5057733;28;20036;-82
2021/08/04 03:33:05;;;;;;;34.20;28.50;;;23.90;95.60;;;;;;5057328;28;20035;-82
2021/08/04 03:35:30;;;;;;;34.20;28.25;;;23.90;95.60;;;;;;5044333;28;20040;-82
2021/08/04 03:37:56;;;;;;;32.97;27.42;;;23.90;95.60;;;;;;5075626;28;20104;-82
2021/08/04 03:40:22;;;;;;;35.08;28.05;;;23.90;95.70;;;;;;5057620;28;20077;-82
2021/08/04 03:42:48;;;;;;;32.80;27.52;;;23.90;95.70;;;;;;5040639;28;20032;-82
2021/08/04 03:45:13;;;;;;;32.28;27.25;;;23.90;95.70;;;;;;5058537;28;20044;-82
2021/08/04 03:47:39;;;;;;;33.05;26.85;;;23.90;95.80;;;;;;5040854;28;20040;-82
2021/08/04 03:50:05;;;;;;;35.67;28.00;;;23.90;95.80;;;;;;5075004;28;20309;-82
2021/08/04 03:52:32;;;;;;;35.78;26.60;;;23.90;95.80;;;;;;5077972;28;20028;-82
2021/08/04 03:54:58;;;;;;;34.95;26.30;;;23.90;95.80;;;;;;5040313;28;20427;-83
2021/08/04 03:57:23;;;;;;;32.95;25.75;;;23.90;95.80;;;;;;5056924;28;20044;-82
2021/08/04 03:59:49;;;;;;;32.03;26.92;;;23.90;95.80;;;;;;5059817;28;20100;-83
2021/08/04 04:02:15;;;;;;;31.40;25.65;;;23.90;95.80;;;;;;5080153;28;20031;-83
2021/08/04 04:04:40;;;;;;;31.13;25.65;;;23.90;95.90;;;;;;5056743;28;20385;-84
2021/08/04 04:07:06;;;;;;;32.35;26.17;;;23.90;95.90;;;;;;5056548;28;20037;-82
2021/08/04 04:09:32;;;;;;;31.70;26.02;;;23.90;95.90;;;;;;5057822;28;20056;-82
2021/08/04 04:11:57;;;;;;;31.27;25.55;;;23.90;96.00;;;;;;5023369;28;20119;-82
2021/08/04 04:14:23;;;;;;;30.08;25.25;;;23.90;95.90;;;;;;5057227;28;20336;-82
2021/08/04 04:16:48;;;;;;;29.10;25.55;;;23.90;95.90;;;;;;5026064;28;20083;-82
2021/08/04 04:19:14;;;;;;;31.85;26.33;;;23.90;95.90;;;;;;5056957;28;20096;-82
2021/08/04 04:21:40;;;;;;;31.58;25.23;;;23.90;95.90;;;;;;5056355;28;20486;-82
2021/08/04 04:24:05;;;;;;;32.40;25.92;;;23.90;95.90;;;;;;5056629;28;20043;-82
2021/08/04 04:26:31;;;;;;;31.67;25.98;;;23.90;95.90;;;;;;5074659;28;20466;-82
2021/08/04 04:28:57;;;;;;;31.08;25.45;;;23.90;95.90;;;;;;5042763;28;20478;-83
2021/08/04 04:31:22;;;;;;;31.60;25.52;;;23.90;96.00;;;;;;5074844;28;20021;-83
2021/08/04 04:33:48;;;;;;;29.92;24.98;;;23.90;96.00;;;;;;5056513;28;20147;-82
2021/08/04 04:36:14;;;;;;;32.63;25.92;;;23.90;96.00;;;;;;5056236;28;20036;-82
2021/08/04 04:38:39;;;;;;;28.65;24.88;;;23.90;95.90;;;;;;5056465;28;20036;-82
2021/08/04 04:41:05;;;;;;;29.83;25.33;;;23.90;95.90;;;;;;5040472;28;20458;-82
2021/08/04 04:43:31;;;;;;;31.52;25.45;;;24.00;96.00;;;;;;5042513;28;20028;-82
2021/08/04 04:45:56;;;;;;;32.13;25.17;;;23.90;96.00;;;;;;5039398;28;20039;-84
2021/08/04 04:48:22;;;;;;;30.35;26.05;;;24.00;96.00;;;;;;5056372;28;20029;-82
2021/08/04 04:50:48;;;;;;;29.00;24.00;;;24.00;96.00;;;;;;5073905;28;20033;-82
2021/08/04 04:53:13;;;;;;;28.98;24.75;;;24.00;96.00;;;;;;5041417;28;20032;-82
2021/08/04 04:55:39;;;;;;;30.88;25.05;;;24.00;96.00;;;;;;5039207;28;20032;-82
2021/08/04 04:58:05;;;;;;;31.25;24.80;;;23.90;95.90;;;;;;5073589;28;20470;-81
2021/08/04 05:00:30;;;;;;;27.05;23.42;;;23.90;96.00;;;;;;5039393;28;20443;-81
2021/08/04 05:02:56;;;;;;;27.63;24.08;;;23.90;96.00;;;;;;5055967;28;20031;-81
2021/08/04 05:05:22;;;;;;;26.55;22.35;;;24.00;96.00;;;;;;5021827;28;20032;-81
2021/08/04 05:07:47;;;;;;;27.33;22.50;;;23.90;95.90;;;;;;5039007;28;20032;-81
2021/08/04 05:10:13;;;;;;;29.00;23.20;;;24.00;96.00;;;;;;5022586;28;20035;-81
2021/08/04 05:12:39;;;;;;;26.63;22.25;;;23.90;95.90;;;;;;5055737;28;20413;-82
2021/08/04 05:15:05;;;;;;;28.02;22.58;;;23.90;95.90;;;;;;5041522;28;20145;-82
2021/08/04 05:17:31;;;;;;;27.17;21.05;;;24.00;95.90;;;;;;5041428;28;20052;-82
2021/08/04 05:19:57;;;;;;;26.75;21.52;;;24.00;95.90;;;;;;5055596;28;20090;-82
2021/08/04 05:22:23;;;;;;;26.48;21.45;;;24.00;95.90;;;;;;5046830;28;20470;-81
2021/08/04 05:24:48;;;;;;;27.13;21.63;;;24.00;95.90;;;;;;5055429;28;20029;-81
2021/08/04 05:27:14;;;;;;;23.58;20.63;;;24.00;95.90;;;;;;5054923;28;20028;-83
2021/08/04 05:29:40;;;;;;;24.40;20.73;;;24.00;95.90;;;;;;5057096;28;20039;-82
2021/08/04 05:32:06;;;;;;;24.98;21.20;;;24.00;95.90;;;;;;5074136;28;20029;-83
2021/08/04 05:34:31;;;;;;;25.30;20.45;;;23.90;95.90;;;;;;5055407;28;20033;-82
2021/08/04 05:36:57;;;;;;;22.65;20.23;;;24.00;95.90;;;;;;5073149;28;20054;-82
2021/08/04 05:39:23;;;;;;;22.70;20.20;;;24.00;95.90;;;;;;5054763;28;21031;-83
2021/08/04 05:41:48;;;;;;;25.52;20.50;;;24.00;96.00;;;;;;5056727;28;20029;-82
2021/08/04 05:44:14;;;;;;;24.05;19.27;;;24.00;96.00;;;;;;5041163;28;20036;-83
2021/08/04 05:46:40;;;;;;;23.58;19.45;;;24.00;96.00;;;;;;5054880;28;20094;-83
2021/08/04 05:49:05;;;;;;;24.17;19.63;;;23.90;96.00;;;;;;5072669;28;20029;-82
2021/08/04 05:51:31;;;;;;;21.92;18.80;;;24.00;96.00;;;;;;5037920;28;20025;-83
2021/08/04 05:53:56;;;;;;;22.80;19.80;;;24.00;96.00;;;;;;5054403;28;20431;-82
2021/08/04 05:56:22;;;;;;;23.38;19.27;;;24.00;96.00;;;;;;5072184;28;20032;-83
2021/08/04 05:58:48;;;;;;;27.17;18.95;;;24.00;95.90;;;;;;5072515;28;20423;-82
2021/08/04 06:01:13;;;;;;;23.63;19.50;;;24.00;96.00;;;;;;5056334;28;20359;-84
2021/08/04 06:03:39;;;;;;;23.80;19.63;;;24.00;96.10;;;;;;5021057;28;20167;-81
2021/08/04 06:06:05;;;;;;;25.00;19.88;;;24.00;96.20;;;;;;5038341;28;20036;-82
2021/08/04 06:08:30;;;;;;;23.30;19.30;;;24.00;96.30;;;;;;5072136;28;20040;-82
2021/08/04 06:10:57;;;;;;;23.30;18.10;;;24.00;96.40;;;;;;5071163;28;20028;-82
2021/08/04 06:13:23;;;;;;;20.83;16.33;;;24.00;96.40;;;;;;5054212;28;20039;-83
2021/08/04 06:15:50;;;;;;;18.75;15.43;;;24.00;96.40;;;;;;5072571;28;20047;-82
2021/08/04 06:18:15;;;;;;;18.98;14.50;;;24.00;96.40;;;;;;5072343;28;20044;-83
2021/08/04 06:20:41;;;;;;;17.35;13.88;;;24.00;96.40;;;;;;5072727;28;20550;-82
2021/08/04 06:23:07;;;;;;;17.70;12.63;;;24.00;96.40;;;;;;5034286;28;20044;-84
2021/08/04 06:25:33;;;;;;;14.38;12.52;;;24.00;96.40;;;;;;5054381;28;20028;-84
2021/08/04 06:27:58;;;;;;;15.10;11.98;;;24.00;96.40;;;;;;5054869;28;20050;-83
2021/08/04 06:30:24;;;;;;;12.32;10.55;;;24.00;96.40;;;;;;5056165;28;20485;-84
2021/08/04 06:32:49;;;;;;;13.75;10.88;;;24.00;96.40;;;;;;5054878;28;20033;-84
2021/08/04 06:35:15;;;;;;;12.63;10.30;;;24.00;96.40;;;;;;5072150;28;20093;-83
2021/08/04 06:37:41;;;;;;;11.82;9.77;;;24.00;96.40;;;;;;5037902;28;20119;-83
2021/08/04 06:40:07;;;;;;;10.15;8.18;;;24.00;96.40;;;;;;5057331;28;20029;-84
2021/08/04 06:42:32;;;;;;;11.60;8.50;;;24.00;96.40;;;;;;5072488;28;20029;-84
2021/08/04 06:44:58;;;;;;;10.48;9.00;;;24.00;96.40;;;;;;5072317;28;20033;-85
2021/08/04 06:47:24;;;;;;;10.52;7.70;;;24.00;96.40;;;;;;5053992;28;20147;-85
2021/08/04 06:49:49;;;;;;;11.13;8.07;;;24.00;96.40;;;;;;5054453;28;20368;-85
2021/08/04 06:52:15;;;;;;;8.68;7.00;;;24.00;96.40;;;;;;5040044;28;20482;-85
2021/08/04 06:54:40;;;;;;;8.80;7.32;;;24.00;96.40;;;;;;5038358;28;20029;-85
2021/08/04 06:57:06;;;;;;;8.77;6.28;;;24.00;96.40;;;;;;5054378;28;20052;-85
2021/08/04 06:59:32;;;;;;;8.93;6.30;;;24.00;96.40;;;;;;5037374;28;20043;-85
2021/08/04 07:02:01;;;;;;;7.30;6.03;;;24.00;96.40;;;;;;5038333;28;20029;-85
2021/08/04 07:04:30;;;;;;;8.05;6.65;;;24.00;96.40;;;;;;5056195;28;20025;-85
2021/08/04 07:07:00;;;;;;;7.88;5.93;;;24.00;96.30;;;;;;5072760;28;20060;-83
2021/08/04 07:09:26;;;;;;;7.10;5.35;;;24.00;96.30;;;;;;5072636;28;20139;-84
2021/08/04 07:11:52;;;;;;;6.82;5.05;;;24.00;96.20;;;;;;5059412;28;20032;-84
2021/08/04 07:14:18;;;;;;;7.35;5.57;;;24.00;96.20;;;;;;5037409;28;20120;-84
2021/08/04 07:16:45;;;;;;;6.13;4.45;;;24.00;96.20;;;;;;5071935;28;20048;-85
2021/08/04 07:19:10;;;;;;;6.70;4.65;;;24.00;96.10;;;;;;5057783;28;20029;-83
2021/08/04 07:21:37;;;;;;;5.65;3.88;;;24.00;96.10;;;;;;5071398;28;20216;-83
2021/08/04 07:24:04;;;;;;;5.10;4.25;;;24.00;96.10;;;;;;5054153;28;20059;-82
2021/08/04 07:26:29;;;;;;;4.05;3.60;;;24.00;96.10;;;;;;5057280;28;20054;-83
2021/08/04 07:28:56;;;;;;;4.32;3.63;;;24.00;96.10;;;;;;5055269;28;20033;-83
2021/08/04 07:31:23;;;;;;;4.97;3.42;;;24.00;96.10;;;;;;5075116;28;20095;-84
2021/08/04 07:33:48;;;;;;;3.88;3.22;;;24.00;96.10;;;;;;5075127;28;20539;-82
2021/08/04 07:36:14;;;;;;;3.20;2.90;;;24.00;96.10;;;;;;5079037;28;20068;-83
2021/08/04 07:38:39;;;;;;;3.90;3.10;;;24.00;96.00;;;;;;5075074;28;20086;-82
2021/08/04 07:41:06;;;;;;;4.75;3.20;;;24.00;96.00;;;;;;5040671;28;20079;-83
2021/08/04 07:43:32;;;;;;;3.85;2.95;;;24.00;96.00;;;;;;5040373;28;20036;-82
2021/08/04 07:45:57;;;;;;;3.50;2.75;;;24.00;96.00;;;;;;5057436;28;20036;-83
2021/08/04 07:48:23;;;;;;;4.47;2.60;;;24.00;96.00;;;;;;5023658;28;20127;-83
2021/08/04 07:50:49;;;;;;;2.92;2.58;;;24.00;96.00;;;;;;5057385;28;20058;-83
2021/08/04 07:53:14;;;;;;;2.80;2.40;;;24.00;96.00;;;;;;5040717;28;20417;-83
2021/08/04 07:55:40;;;;;;;2.42;2.15;;;24.00;96.00;;;;;;5039971;28;20040;-82
2021/08/04 07:58:06;;;;;;;2.88;2.33;;;24.00;96.00;;;;;;5057124;28;20394;-82
2021/08/04 08:00:32;;;;;;;3.05;2.10;;;24.10;95.90;;;;;;5056693;28;20085;-82
2021/08/04 08:02:57;;;;;;;3.40;2.05;;;24.20;95.90;;;;;;5075579;28;20028;-82
2021/08/04 08:05:23;;;;;;;2.58;1.80;;;24.20;95.80;;;;;;5056604;28;20467;-83
2021/08/04 08:07:49;;;;;;;2.00;1.70;;;24.10;95.80;;;;;;5023808;28;20555;-82
2021/08/04 08:10:18;;;;;;;2.30;1.95;;;24.20;95.80;;;;;;5056709;28;20067;-82
2021/08/04 08:12:44;;;;;;;2.50;2.10;;;24.10;95.80;;;;;;5074585;28;20081;-81
2021/08/04 08:15:11;;;;;;;3.20;2.15;;;24.20;95.90;;;;;;5074805;28;20021;-83
2021/08/04 08:17:37;;;;;;;2.65;1.88;;;24.10;95.80;;;;;;5039612;28;20098;-83
2021/08/04 08:20:04;;;;;;;2.28;1.77;;;24.20;95.90;;;;;;5056588;28;20551;-83
2021/08/04 08:22:29;;;;;;;3.05;1.80;;;24.20;95.80;;;;;;5074284;28;20036;-83
2021/08/04 08:24:55;;;;;;;2.33;1.63;;;24.20;95.80;;;;;;5074468;28;20170;-83
2021/08/04 08:27:20;;;;;;;2.03;1.50;;;24.20;95.80;;;;;;5039837;28;20478;-82
2021/08/04 08:29:46;;;;;;;2.45;1.90;;;24.20;95.80;;;;;;5041363;28;20036;-85
2021/08/04 08:32:12;;;;;;;2.10;1.58;;;24.20;95.80;;;;;;5056604;28;20086;-83
2021/08/04 08:34:37;;;;;;;2.25;1.83;;;24.20;95.80;;;;;;5056332;28;20104;-82
2021/08/04 08:37:03;;;;;;;1.42;1.27;;;24.20;95.80;;;;;;5056440;28;20056;-83
2021/08/04 08:39:31;;;;;;;2.05;1.60;;;24.20;95.80;;;;;;5073656;28;20062;-83
2021/08/04 08:41:58;;;;;;;1.98;1.75;;;24.20;95.80;;;;;;5040145;28;20036;-83
2021/08/04 08:44:24;;;;;;;2.55;1.55;;;24.20;95.80;;;;;;5059367;28;20036;-83
2021/08/04 08:46:50;;;;;;;2.67;1.85;;;24.20;96.00;;;;;;5055629;28;20040;-82
2021/08/04 08:49:25;;;;;;;1.70;1.60;;;24.20;95.80;;;;;;5058040;28;20029;-82
2021/08/04 08:51:51;;;;;;;1.77;1.40;;;24.10;95.80;;;;;;5073568;28;20046;-82
2021/08/04 08:54:17;;;;;;;2.47;1.98;;;24.10;95.80;;;;;;5056862;28;20111;-82
2021/08/04 08:56:43;;;;;;;3.15;1.60;;;24.20;95.80;;;;;;5039440;28;20060;-82
2021/08/04 08:59:09;;;;;;;1.65;1.50;;;24.20;95.80;;;;;;5056274;28;20040;-85
2021/08/04 09:01:37;;;;;;;2.42;1.55;;;24.20;95.80;;;;;;5055223;28;20036;-82
2021/08/04 09:04:07;;;;;;;2.55;1.48;;;24.20;95.80;;;;;;5073626;28;20025;-82
2021/08/04 09:06:51;;;;;;;2.17;1.70;;;24.20;95.80;;;;;;5075673;28;20021;-83
2021/08/04 09:09:27;;;;;;;2.17;1.77;;;24.20;95.80;;;;;;5055829;28;20021;-82
2021/08/04 09:12:08;;;;;;;2.15;1.20;;;24.20;95.80;;;;;;5036794;28;20044;-82
2021/08/04 09:14:36;;;;;;;1.63;1.52;;;24.10;95.80;;;;;;5073175;28;20087;-83
2021/08/04 09:17:03;;;;;;;3.10;1.50;;;24.10;95.70;;;;;;5055182;28;20053;-83
2021/08/04 09:19:30;;;;;;;1.55;1.40;;;24.20;95.80;;;;;;5077136;28;20094;-82
2021/08/04 09:22:19;;;;;;;2.03;1.67;;;24.10;95.80;;;;;;5073185;28;20051;-82
2021/08/04 09:24:56;;;;;;;1.75;1.65;;;24.20;95.80;;;;;;5073136;28;20017;-83
2021/08/04 09:27:42;;;;;;;1.73;1.33;;;24.20;95.80;;;;;;5057430;28;20036;-82
2021/08/04 09:30:13;;;;;;;1.70;1.60;;;24.20;95.80;;;;;;5073183;28;20060;-83
2021/08/04 09:32:39;;;;;;;2.55;1.63;;;24.20;95.80;;;;;;5055395;28;20028;-83
2021/08/04 09:35:16;;;;;;;1.60;1.48;;;24.10;95.80;;;;;;5055114;28;20025;-82
2021/08/04 09:37:42;;;;;;;1.40;1.27;;;24.20;95.80;;;;;;5079311;28;20086;-83
2021/08/04 09:40:12;;;;;;;3.03;1.60;;;24.20;95.80;;;;;;5055380;28;20136;-82
2021/08/04 09:42:50;;;;;;;2.13;1.63;;;24.20;95.80;;;;;;5072625;28;20024;-84
2021/08/04 09:45:36;;;;;;;3.53;1.50;;;24.20;95.80;;;;;;5073184;28;20516;-82
2021/08/04 09:48:11;;;;;;;2.22;1.92;;;24.20;95.80;;;;;;5054504;28;20516;-81
2021/08/04 09:50:58;;;;;;;1.85;1.58;;;24.20;95.80;;;;;;5072718;28;20466;-84
2021/08/04 09:53:25;;;;;;;1.92;1.50;;;24.20;95.80;;;;;;5054576;28;20036;-83
2021/08/04 09:56:06;;;;;;;2.05;1.40;;;24.20;95.70;;;;;;5072555;28;20056;-83
2021/08/04 09:58:33;;;;;;;2.95;1.90;;;24.20;95.70;;;;;;5055023;28;20029;-82
2021/08/04 10:01:01;;;;;;;1.80;1.65;;;24.20;95.70;;;;;;5072264;28;20024;-82
2021/08/04 10:03:28;;;;;;;2.03;1.65;;;24.20;95.70;;;;;;5076009;28;20048;-82
2021/08/04 10:05:54;;;;;;;1.88;1.63;;;24.20;95.70;;;;;;5072707;28;20036;-82
2021/08/04 10:08:20;;;;;;;1.98;1.85;;;24.20;95.70;;;;;;5055009;28;20028;-81
2021/08/04 10:10:50;;;;;;;1.70;1.60;;;24.20;95.70;;;;;;5054926;28;20090;-81
2021/08/04 10:13:18;;;;;;;1.90;1.60;;;24.30;95.70;;;;;;5054935;28;20385;-81
2021/08/04 10:15:54;;;;;;;1.67;1.58;;;24.20;95.60;;;;;;5072606;28;20020;-81
2021/08/04 10:18:26;;;;;;;1.85;1.60;;;24.30;95.70;;;;;;5072592;28;20049;-81
2021/08/04 10:20:55;;;;;;;1.60;1.40;;;24.30;95.70;;;;;;5072414;28;20059;-82
2021/08/04 10:23:22;;;;;;;2.33;1.77;;;24.30;95.70;;;;;;5072587;28;20048;-81
2021/08/04 10:25:48;;;;;;;1.60;1.50;;;24.30;95.60;;;;;;5073758;28;20025;-82
2021/08/04 10:28:14;;;;;;;2.03;1.77;;;24.30;95.60;;;;;;5055193;28;20035;-81
2021/08/04 10:30:42;;;;;;;2.13;1.50;;;24.30;95.60;;;;;;5037866;28;20169;-81
2021/08/04 10:33:08;;;;;;;2.17;1.80;;;24.30;95.60;;;;;;5072502;28;20035;-82
2021/08/04 10:35:40;;;;;;;2.38;1.75;;;24.30;95.60;;;;;;5054322;28;20054;-82
2021/08/04 10:38:15;;;;;;;2.03;1.60;;;24.30;95.60;;;;;;5071783;28;20029;-82
2021/08/04 10:40:40;;;;;;;1.42;1.27;;;24.30;95.60;;;;;;5074192;28;20041;-81
2021/08/04 10:43:06;;;;;;;1.92;1.70;;;24.30;95.50;;;;;;5072220;28;20097;-81
2021/08/04 10:45:33;;;;;;;2.03;1.80;;;24.30;95.50;;;;;;5054402;28;20038;-81
2021/08/04 10:48:39;;;;;;;2.00;1.73;;;24.40;95.50;;;;;;5072179;28;20111;-81
2021/08/04 10:51:19;;;;;;;2.47;1.77;;;24.30;95.50;;;;;;4971829;28;20113;-81
2021/08/04 10:54:02;;;;;;;3.20;1.90;;;24.30;95.50;;;;;;4954832;28;20035;-85
2021/08/04 10:56:39;;;;;;;2.78;2.00;;;24.30;95.50;;;;;;5041529;28;20044;-82
2021/08/04 10:59:08;;;;;;;2.30;1.55;;;24.30;95.50;;;;;;5054154;28;20024;-81
2021/08/04 11:01:34;;;;;;;2.05;1.60;;;24.30;95.50;;;;;;5072081;28;20055;-82
2021/08/04 11:04:00;;;;;;;3.05;1.70;;;24.30;95.40;;;;;;5055146;28;20112;-81
2021/08/04 11:06:26;;;;;;;2.15;1.58;;;24.40;95.50;;;;;;5041823;28;20063;-82
2021/08/04 11:09:19;;;;;;;3.05;1.80;;;24.40;95.40;;;;;;5077242;28;20021;-82
2021/08/04 11:11:57;;;;;;;2.20;1.60;;;24.40;95.40;;;;;;5060122;28;20100;-81
2021/08/04 11:14:43;;;;;;;1.80;1.60;;;24.40;95.40;;;;;;5075975;28;20086;-81
2021/08/04 11:17:11;;;;;;;1.80;1.70;;;24.40;95.40;;;;;;5075408;28;20084;-81
2021/08/04 11:19:59;;;;;;;2.00;1.77;;;24.40;95.40;;;;;;5076548;28;20124;-80
2021/08/04 11:22:31;;;;;;;2.58;1.77;;;24.40;95.40;;;;;;5057657;28;20029;-80
2021/08/04 11:25:01;;;;;;;1.80;1.50;;;24.40;95.40;;;;;;5075698;28;20020;-80
2021/08/04 11:27:32;;;;;;;3.38;1.80;;;24.40;95.40;;;;;;5075879;28;20032;-81
2021/08/04 11:29:58;;;;;;;1.95;1.42;;;24.40;95.40;;;;;;5075308;28;20025;-81
2021/08/04 11:32:26;;;;;;;2.60;1.73;;;24.40;95.40;;;;;;5075525;28;20036;-81
2021/08/04 11:34:52;;;;;;;2.78;1.50;;;24.40;95.40;;;;;;5057327;28;20047;-81
2021/08/04 11:37:19;;;;;;;3.38;1.60;;;24.40;95.40;;;;;;5059730;28;20498;-81
2021/08/04 11:39:56;;;;;;;2.60;1.48;;;24.40;95.40;;;;;;5041410;28;20142;-82
2021/08/04 11:42:23;;;;;;;1.80;1.65;;;24.40;95.40;;;;;;5075597;28;20029;-81
2021/08/04 11:44:49;;;;;;;1.40;1.30;;;24.40;95.50;;;;;;5075780;28;20110;-81
2021/08/04 11:47:15;;;;;;;1.70;1.60;;;24.40;95.50;;;;;;5075424;28;20024;-81
2021/08/04 11:49:46;;;;;;;2.13;1.58;;;24.40;95.50;;;;;;5057705;28;20025;-80
2021/08/04 11:52:23;;;;;;;1.92;1.45;;;24.40;95.50;;;;;;5075169;28;20071;-81
2021/08/04 11:55:16;;;;;;;1.75;1.30;;;24.40;95.50;;;;;;5059626;28;20078;-81
2021/08/04 11:57:46;;;;;;;1.48;1.30;;;24.40;95.50;;;;;;5057348;28;20029;-82
2021/08/04 12:00:20;;;;;;;1.95;1.42;;;24.40;95.50;;;;;;5058249;28;20036;-81
2021/08/04 12:02:46;;;;;;;;;;;24.40;95.50;;;;;;5075322;28;20050;-81
2021/08/04 12:05:13;;;;;;;1.95;1.40;;;24.40;95.50;;;;;;5074743;28;20454;-82
2021/08/04 12:07:42;;;;;;;1.40;1.30;;;24.40;95.50;;;;;;5074833;28;20032;-81
2021/08/04 12:10:12;;;;;;;1.70;1.60;;;24.40;95.50;;;;;;5056628;28;20062;-82
2021/08/04 12:12:44;;;;;;;2.08;1.60;;;24.40;95.50;;;;;;5074872;28;20081;-81
2021/08/04 12:15:16;;;;;;;1.45;1.35;;;24.40;95.50;;;;;;5074236;28;20032;-81
2021/08/04 12:17:42;;;;;;;1.35;1.25;;;24.40;95.50;;;;;;5074535;28;20391;-81
2021/08/04 12:20:20;;;;;;;2.03;1.52;;;24.40;95.40;;;;;;5074113;28;20029;-81
2021/08/04 12:23:00;;;;;;;2.30;1.67;;;24.40;95.40;;;;;;5053702;28;20035;-80
2021/08/04 12:25:27;;;;;;;2.28;1.63;;;24.40;95.40;;;;;;5075121;28;20059;-80
2021/08/04 12:27:54;;;;;;;1.58;1.48;;;24.40;95.40;;;;;;5074848;28;20031;-81
2021/08/04 12:30:30;;;;;;;1.80;1.65;;;24.40;95.40;;;;;;5056511;28;20036;-81
2021/08/04 12:33:08;;;;;;;1.48;1.30;;;24.40;95.40;;;;;;5056152;28;20027;-83
2021/08/04 12:36:02;;;;;;;2.15;1.40;;;24.40;95.40;;;;;;5056978;28;20032;-81
2021/08/04 12:38:30;;;;;;;1.52;1.42;;;24.40;95.30;;;;;;5056769;28;20123;-80
2021/08/04 12:40:57;;;;;;;1.50;1.40;;;24.40;95.30;;;;;;5056224;28;20082;-83
2021/08/04 12:43:28;;;;;;;1.55;1.42;;;24.40;95.20;;;;;;5056219;28;20036;-82